createdAt,value
2019-03-31T00:00:11.123Z,11.04
2019-03-31T00:01:21.071Z,11.07
2019-03-31T00:02:30.803Z,10.94
2019-03-31T00:03:40.769Z,11
2019-03-31T00:04:50.455Z,10.95
2019-03-31T00:06:00.448Z,11
2019-03-31T00:07:10.408Z,10.97
2019-03-31T00:08:20.364Z,10.92
2019-03-31T00:09:30.314Z,10.84
2019-03-31T00:10:40.017Z,10.87
2019-03-31T00:11:49.982Z,10.77
2019-03-31T00:12:59.680Z,10.8
2019-03-31T00:14:09.646Z,10.8
2019-03-31T00:15:19.606Z,10.79
2019-03-31T00:16:29.065Z,10.75
2019-03-31T00:17:39.014Z,10.69
2019-03-31T00:18:48.766Z,10.69
2019-03-31T00:19:58.470Z,10.62
2019-03-31T00:21:07.917Z,10.65
2019-03-31T00:22:17.613Z,10.65
2019-03-31T00:23:27.071Z,10.57
2019-03-31T00:24:37.022Z,10.58
2019-03-31T00:25:46.729Z,10.51
2019-03-31T00:26:56.734Z,10.45
2019-03-31T00:28:06.442Z,10.57
2019-03-31T00:29:16.469Z,10.53
2019-03-31T00:30:26.176Z,10.53
2019-03-31T00:31:36.126Z,10.55
2019-03-31T00:32:46.069Z,10.57
2019-03-31T00:33:56.035Z,10.45
2019-03-31T00:35:05.731Z,10.48
2019-03-31T00:36:15.701Z,10.45
2019-03-31T00:37:25.655Z,10.42
2019-03-31T00:38:35.449Z,10.43
2019-03-31T00:39:45.152Z,10.43
2019-03-31T00:40:55.100Z,10.38
2019-03-31T00:42:05.049Z,10.45
2019-03-31T00:43:15.015Z,10.49
2019-03-31T00:44:24.966Z,10.41
2019-03-31T00:45:34.913Z,10.46
2019-03-31T00:46:44.944Z,10.42
2019-03-31T00:47:54.652Z,10.42
2019-03-31T00:49:04.360Z,10.33
2019-03-31T00:50:14.315Z,10.39
2019-03-31T00:51:24.032Z,10.28
2019-03-31T00:52:33.776Z,10.2
2019-03-31T00:53:43.725Z,10.24
2019-03-31T00:54:53.737Z,10.2
2019-03-31T00:56:03.710Z,10.17
2019-03-31T00:57:13.680Z,10.2
2019-03-31T00:58:23.647Z,10.12
2019-03-31T00:59:33.581Z,10.07
2019-03-31T01:00:43.571Z,10.06
2019-03-31T01:01:53.525Z,9.99
2019-03-31T01:03:03.482Z,9.95
2019-03-31T01:04:13.177Z,9.99
2019-03-31T01:05:23.653Z,9.99
2019-03-31T01:06:33.597Z,10.02
2019-03-31T01:07:43.301Z,9.97
2019-03-31T01:08:52.750Z,10.03
2019-03-31T01:10:02.801Z,10.06
2019-03-31T01:11:12.498Z,10.09
2019-03-31T01:12:22.453Z,10.07
2019-03-31T01:13:32.409Z,10.03
2019-03-31T01:14:42.358Z,10.05
2019-03-31T01:15:51.874Z,10.07
2019-03-31T01:17:01.825Z,10.07
2019-03-31T01:18:11.565Z,10.05
2019-03-31T01:19:21.632Z,10.05
2019-03-31T01:20:31.137Z,10.03
2019-03-31T01:21:40.844Z,9.99
2019-03-31T01:22:50.814Z,10.02
2019-03-31T01:24:00.767Z,10.02
2019-03-31T01:25:10.722Z,9.99
2019-03-31T01:26:20.410Z,9.99
2019-03-31T01:27:30.363Z,10
2019-03-31T01:28:40.302Z,9.97
2019-03-31T01:29:50.253Z,9.99
2019-03-31T01:30:59.443Z,9.97
2019-03-31T01:32:09.391Z,10.03
2019-03-31T01:33:19.118Z,9.95
2019-03-31T01:34:28.582Z,9.99
2019-03-31T01:35:38.309Z,9.99
2019-03-31T01:36:48.275Z,9.97
2019-03-31T01:37:58.222Z,9.97
2019-03-31T01:39:08.229Z,10.02
2019-03-31T01:40:18.173Z,9.95
2019-03-31T01:41:27.864Z,9.99
2019-03-31T01:42:37.055Z,9.97
2019-03-31T01:43:47.022Z,9.92
2019-03-31T01:44:56.988Z,9.99
2019-03-31T01:46:06.458Z,9.92
2019-03-31T01:47:16.414Z,9.99
2019-03-31T01:48:26.442Z,9.9
2019-03-31T01:49:36.397Z,9.9
2019-03-31T01:50:45.829Z,9.94
2019-03-31T01:51:55.778Z,9.9
2019-03-31T01:53:05.495Z,9.87
2019-03-31T01:54:15.212Z,9.91
2019-03-31T01:55:24.955Z,9.82
2019-03-31T01:56:34.661Z,9.82
2019-03-31T01:57:44.630Z,9.82
2019-03-31T01:58:54.585Z,9.85
2019-03-31T02:00:04.550Z,9.9
2019-03-31T02:01:13.986Z,9.88
2019-03-31T02:02:24.001Z,9.85
2019-03-31T02:03:33.951Z,9.8
2019-03-31T02:04:43.649Z,9.85
2019-03-31T02:05:53.614Z,9.82
2019-03-31T02:07:03.315Z,9.87
2019-03-31T02:08:13.409Z,9.8
2019-03-31T02:09:23.347Z,9.8
2019-03-31T02:10:33.063Z,9.81
2019-03-31T02:11:43.017Z,9.82
2019-03-31T02:12:52.955Z,9.84
2019-03-31T02:14:02.910Z,9.81
2019-03-31T02:15:12.598Z,9.82
2019-03-31T02:16:22.564Z,9.84
2019-03-31T02:17:32.516Z,9.84
2019-03-31T02:18:42.477Z,9.87
2019-03-31T02:19:52.442Z,9.85
2019-03-31T02:21:02.408Z,9.84
2019-03-31T02:22:11.843Z,9.84
2019-03-31T02:23:21.791Z,9.82
2019-03-31T02:24:31.747Z,9.77
2019-03-31T02:25:41.465Z,9.82
2019-03-31T02:26:51.413Z,9.85
2019-03-31T02:28:01.101Z,9.81
2019-03-31T02:29:11.053Z,9.84
2019-03-31T02:30:20.771Z,9.8
2019-03-31T02:31:30.496Z,9.84
2019-03-31T02:32:40.464Z,9.84
2019-03-31T02:33:49.695Z,9.81
2019-03-31T02:34:59.452Z,9.82
2019-03-31T02:36:09.277Z,9.82
2019-03-31T02:37:19.113Z,9.81
2019-03-31T02:38:29.145Z,9.85
2019-03-31T02:39:38.842Z,9.74
2019-03-31T02:40:48.324Z,9.81
2019-03-31T02:41:58.348Z,9.87
2019-03-31T02:43:08.318Z,9.8
2019-03-31T02:44:18.317Z,9.82
2019-03-31T02:45:28.287Z,9.81
2019-03-31T02:46:38.280Z,9.72
2019-03-31T02:47:48.238Z,9.7
2019-03-31T02:48:57.693Z,9.76
2019-03-31T02:50:07.398Z,9.69
2019-03-31T02:51:16.856Z,9.64
2019-03-31T02:52:26.884Z,9.64
2019-03-31T02:53:36.620Z,9.56
2019-03-31T02:54:46.617Z,9.62
2019-03-31T02:55:56.642Z,9.69
2019-03-31T02:57:06.360Z,9.69
2019-03-31T02:58:16.380Z,9.69
2019-03-31T02:59:26.368Z,9.67
2019-03-31T03:00:36.087Z,9.63
2019-03-31T03:01:45.803Z,9.62
2019-03-31T03:02:55.536Z,9.72
2019-03-31T03:04:07.844Z,9.55
2019-03-31T03:05:24.324Z,9.58
2019-03-31T03:06:33.800Z,9.56
2019-03-31T03:07:43.771Z,9.72
2019-03-31T03:08:53.482Z,9.69
2019-03-31T03:10:03.440Z,9.56
2019-03-31T03:11:13.234Z,9.62
2019-03-31T03:12:22.699Z,9.55
2019-03-31T03:13:32.419Z,9.56
2019-03-31T03:14:42.451Z,9.62
2019-03-31T03:15:52.414Z,9.64
2019-03-31T03:17:02.375Z,9.55
2019-03-31T03:18:12.069Z,9.58
2019-03-31T03:19:22.023Z,9.58
2019-03-31T03:20:31.738Z,9.59
2019-03-31T03:21:41.743Z,9.56
2019-03-31T03:22:51.455Z,9.45
2019-03-31T03:24:00.927Z,9.56
2019-03-31T03:25:10.392Z,9.51
2019-03-31T03:26:20.104Z,9.47
2019-03-31T03:27:29.557Z,9.42
2019-03-31T03:28:39.516Z,9.44
2019-03-31T03:29:49.531Z,9.4
2019-03-31T03:31:00.987Z,9.49
2019-03-31T03:32:20.100Z,9.47
2019-03-31T03:33:30.213Z,9.36
2019-03-31T03:34:39.972Z,9.45
2019-03-31T03:35:49.711Z,9.37
2019-03-31T03:36:59.667Z,9.27
2019-03-31T03:38:09.681Z,9.27
2019-03-31T03:39:19.644Z,9.21
2019-03-31T03:40:29.592Z,9.29
2019-03-31T03:41:39.593Z,9.3
2019-03-31T03:42:49.555Z,9.24
2019-03-31T03:44:05.251Z,9.22
2019-03-31T03:45:15.222Z,9.11
2019-03-31T03:46:25.199Z,9.15
2019-03-31T03:47:35.183Z,9.11
2019-03-31T03:48:44.637Z,9.03
2019-03-31T03:49:54.526Z,9.08
2019-03-31T03:51:04.278Z,9.05
2019-03-31T03:52:14.237Z,9.11
2019-03-31T03:53:23.697Z,9
2019-03-31T03:54:33.439Z,8.96
2019-03-31T03:55:43.387Z,9.02
2019-03-31T03:56:53.345Z,8.97
2019-03-31T03:58:03.357Z,8.93
2019-03-31T03:59:12.574Z,8.89
2019-03-31T04:00:22.525Z,9.03
2019-03-31T04:01:32.470Z,8.97
2019-03-31T04:02:42.421Z,8.96
2019-03-31T04:03:52.381Z,8.89
2019-03-31T04:05:01.919Z,8.92
2019-03-31T04:06:11.370Z,8.89
2019-03-31T04:07:20.821Z,8.87
2019-03-31T04:08:30.789Z,8.84
2019-03-31T04:09:40.826Z,8.87
2019-03-31T04:10:50.787Z,8.86
2019-03-31T04:12:00.740Z,8.81
2019-03-31T04:13:10.715Z,8.71
2019-03-31T04:14:20.701Z,8.74
2019-03-31T04:15:30.554Z,8.71
2019-03-31T04:16:40.576Z,8.64
2019-03-31T04:17:50.309Z,8.66
2019-03-31T04:18:59.830Z,8.66
2019-03-31T04:20:10.004Z,8.68
2019-03-31T04:21:19.967Z,8.72
2019-03-31T04:22:29.939Z,8.64
2019-03-31T04:23:39.899Z,8.66
2019-03-31T04:24:49.627Z,8.69
2019-03-31T04:25:59.357Z,8.64
2019-03-31T04:27:09.318Z,8.71
2019-03-31T04:28:18.813Z,8.71
2019-03-31T04:29:28.814Z,8.64
2019-03-31T04:30:38.862Z,8.63
2019-03-31T04:31:48.577Z,8.53
2019-03-31T04:32:58.627Z,8.66
2019-03-31T04:34:08.653Z,8.57
2019-03-31T04:35:18.402Z,8.61
2019-03-31T04:36:28.134Z,8.5
2019-03-31T04:37:38.113Z,8.46
2019-03-31T04:38:48.093Z,8.46
2019-03-31T04:39:58.289Z,8.46
2019-03-31T04:41:08.259Z,8.52
2019-03-31T04:42:18.219Z,8.49
2019-03-31T04:43:27.913Z,8.53
2019-03-31T04:44:37.619Z,8.39
2019-03-31T04:45:47.335Z,8.34
2019-03-31T04:46:57.041Z,8.36
2019-03-31T04:48:07.005Z,8.38
2019-03-31T04:49:17.008Z,8.36
2019-03-31T04:50:26.960Z,8.34
2019-03-31T04:51:36.673Z,8.32
2019-03-31T04:52:46.630Z,8.35
2019-03-31T04:53:56.556Z,8.28
2019-03-31T04:55:06.553Z,8.14
2019-03-31T04:56:16.520Z,8.24
2019-03-31T04:57:25.975Z,8.24
2019-03-31T04:58:35.915Z,8.18
2019-03-31T04:59:45.597Z,8.21
2019-03-31T05:00:55.646Z,8.17
2019-03-31T05:02:05.362Z,8.18
2019-03-31T05:03:15.309Z,8.09
2019-03-31T05:04:25.299Z,8.14
2019-03-31T05:05:35.016Z,8.08
2019-03-31T05:06:44.740Z,8.14
2019-03-31T05:07:54.679Z,8.08
2019-03-31T05:09:04.378Z,8.13
2019-03-31T05:10:14.348Z,8.14
2019-03-31T05:11:24.303Z,8.08
2019-03-31T05:12:34.015Z,8.09
2019-03-31T05:13:43.958Z,8.13
2019-03-31T05:14:53.652Z,8.14
2019-03-31T05:16:03.584Z,8.13
2019-03-31T05:17:13.270Z,8.08
2019-03-31T05:18:23.445Z,8.13
2019-03-31T05:19:33.406Z,8.06
2019-03-31T05:20:43.346Z,8.06
2019-03-31T05:21:53.300Z,8.11
2019-03-31T05:23:03.256Z,8.17
2019-03-31T05:24:13.224Z,8.13
2019-03-31T05:25:22.912Z,8.16
2019-03-31T05:26:32.871Z,8.16
2019-03-31T05:27:42.802Z,8.16
2019-03-31T05:28:52.499Z,8.18
2019-03-31T05:30:02.193Z,8.14
2019-03-31T05:31:12.139Z,8.14
2019-03-31T05:32:21.900Z,8.17
2019-03-31T05:33:31.641Z,8.2
2019-03-31T05:34:41.582Z,8.18
2019-03-31T05:35:51.024Z,8.16
2019-03-31T05:37:00.806Z,8.2
2019-03-31T05:38:10.502Z,8.17
2019-03-31T05:39:20.532Z,8.2
2019-03-31T05:40:33.168Z,8.2
2019-03-31T05:41:42.695Z,8.2
2019-03-31T05:42:52.651Z,8.18
2019-03-31T05:44:10.748Z,8.18
2019-03-31T05:45:20.694Z,8.18
2019-03-31T05:46:29.900Z,8.23
2019-03-31T05:47:39.341Z,8.23
2019-03-31T05:48:49.300Z,8.18
2019-03-31T05:49:58.736Z,8.2
2019-03-31T05:51:08.436Z,8.16
2019-03-31T05:52:18.378Z,8.23
2019-03-31T05:53:28.316Z,8.2
2019-03-31T05:54:38.018Z,8.23
2019-03-31T05:55:47.710Z,8.2
2019-03-31T05:56:57.685Z,8.2
2019-03-31T05:58:07.634Z,8.23
2019-03-31T05:59:17.649Z,8.17
2019-03-31T06:00:27.090Z,8.16
2019-03-31T06:01:37.028Z,8.28
2019-03-31T06:02:47.136Z,8.14
2019-03-31T06:03:57.090Z,8.26
2019-03-31T06:05:06.798Z,8.32
2019-03-31T06:06:16.744Z,8.27
2019-03-31T06:07:26.700Z,8.34
2019-03-31T06:08:36.402Z,8.31
2019-03-31T06:09:46.366Z,8.36
2019-03-31T06:10:56.304Z,8.27
2019-03-31T06:12:05.756Z,8.31
2019-03-31T06:13:15.470Z,8.32
2019-03-31T06:14:25.165Z,8.27
2019-03-31T06:15:35.117Z,8.28
2019-03-31T06:16:44.830Z,8.34
2019-03-31T06:17:54.796Z,8.24
2019-03-31T06:19:04.738Z,8.28
2019-03-31T06:20:14.684Z,8.18
2019-03-31T06:21:24.707Z,8.17
2019-03-31T06:22:36.844Z,8.18
2019-03-31T06:23:46.793Z,8.16
2019-03-31T06:24:56.845Z,8.17
2019-03-31T06:26:06.297Z,8.17
2019-03-31T06:27:18.086Z,8.14
2019-03-31T06:28:27.795Z,8.23
2019-03-31T06:29:37.738Z,8.14
2019-03-31T06:30:47.434Z,8.26
2019-03-31T06:31:57.389Z,8.23
2019-03-31T06:33:07.382Z,8.28
2019-03-31T06:34:16.831Z,8.35
2019-03-31T06:35:26.782Z,8.36
2019-03-31T06:36:36.729Z,8.39
2019-03-31T06:37:46.676Z,8.34
2019-03-31T06:38:56.416Z,8.41
2019-03-31T06:40:06.105Z,8.52
2019-03-31T06:41:15.539Z,8.53
2019-03-31T06:42:25.496Z,8.54
2019-03-31T06:43:35.452Z,8.45
2019-03-31T06:44:45.416Z,8.45
2019-03-31T06:45:55.113Z,8.52
2019-03-31T06:47:05.134Z,8.53
2019-03-31T06:48:15.096Z,8.5
2019-03-31T06:49:25.040Z,8.38
2019-03-31T06:50:34.994Z,8.34
2019-03-31T06:51:44.703Z,8.39
2019-03-31T06:52:54.418Z,8.34
2019-03-31T06:54:04.356Z,8.39
2019-03-31T06:55:14.310Z,8.32
2019-03-31T06:56:24.309Z,8.31
2019-03-31T06:57:34.001Z,8.31
2019-03-31T06:58:44.038Z,8.17
2019-03-31T06:59:53.982Z,8.21
2019-03-31T07:01:03.683Z,8.26
2019-03-31T07:02:13.384Z,8.23
2019-03-31T07:03:23.345Z,8.21
2019-03-31T07:04:33.111Z,8.16
2019-03-31T07:05:43.061Z,8.2
2019-03-31T07:06:53.012Z,8.21
2019-03-31T07:08:02.714Z,8.23
2019-03-31T07:09:12.661Z,8.26
2019-03-31T07:10:22.355Z,8.21
2019-03-31T07:11:32.310Z,8.35
2019-03-31T07:12:42.011Z,8.31
2019-03-31T07:13:51.954Z,8.36
2019-03-31T07:15:01.901Z,8.27
2019-03-31T07:16:11.414Z,8.38
2019-03-31T07:17:21.116Z,8.39
2019-03-31T07:18:31.068Z,8.32
2019-03-31T07:19:41.000Z,8.35
2019-03-31T07:20:50.934Z,8.36
2019-03-31T07:22:00.889Z,8.35
2019-03-31T07:23:10.578Z,8.34
2019-03-31T07:24:20.533Z,8.54
2019-03-31T07:25:30.581Z,8.46
2019-03-31T07:26:42.300Z,8.6
2019-03-31T07:27:52.263Z,8.56
2019-03-31T07:29:01.960Z,8.59
2019-03-31T07:30:12.104Z,8.66
2019-03-31T07:31:22.070Z,8.63
2019-03-31T07:32:32.014Z,8.56
2019-03-31T07:33:41.963Z,8.68
2019-03-31T07:34:51.903Z,8.72
2019-03-31T07:36:01.850Z,8.81
2019-03-31T07:37:11.530Z,8.72
2019-03-31T07:38:21.096Z,8.79
2019-03-31T07:39:46.080Z,8.82
2019-03-31T07:41:11.664Z,8.9
2019-03-31T07:42:22.353Z,8.9
2019-03-31T07:43:32.556Z,8.95
2019-03-31T07:44:42.305Z,8.97
2019-03-31T07:45:55.542Z,9
2019-03-31T07:47:05.753Z,9.02
2019-03-31T07:48:15.192Z,9.15
2019-03-31T07:49:25.150Z,9.22
2019-03-31T07:50:34.877Z,9.26
2019-03-31T07:51:44.604Z,9.27
2019-03-31T07:52:54.314Z,9.44
2019-03-31T07:54:03.774Z,9.37
2019-03-31T07:55:13.733Z,9.44
2019-03-31T07:56:23.488Z,9.51
2019-03-31T07:57:33.435Z,9.59
2019-03-31T07:58:43.465Z,9.58
2019-03-31T07:59:56.459Z,9.76
2019-03-31T08:01:06.651Z,9.72
2019-03-31T08:02:16.602Z,9.81
2019-03-31T08:03:26.542Z,9.81
2019-03-31T08:04:36.254Z,9.81
2019-03-31T08:05:46.255Z,9.85
2019-03-31T08:06:56.194Z,9.91
2019-03-31T08:08:05.904Z,9.82
2019-03-31T08:09:15.607Z,9.82
2019-03-31T08:10:25.315Z,9.87
2019-03-31T08:11:35.019Z,9.99
2019-03-31T08:12:44.977Z,9.97
2019-03-31T08:13:57.714Z,9.87
2019-03-31T08:15:07.691Z,9.87
2019-03-31T08:16:17.382Z,9.85
2019-03-31T08:17:27.333Z,9.84
2019-03-31T08:18:37.288Z,9.82
2019-03-31T08:19:47.245Z,9.92
2019-03-31T08:20:57.239Z,10
2019-03-31T08:22:07.174Z,10.03
2019-03-31T08:23:17.133Z,10.06
2019-03-31T08:24:26.834Z,10.05
2019-03-31T08:25:36.536Z,10.18
2019-03-31T08:26:46.239Z,10.17
2019-03-31T08:27:55.763Z,10.09
2019-03-31T08:29:05.470Z,10.07
2019-03-31T08:30:15.424Z,10.07
2019-03-31T08:31:25.352Z,10.07
2019-03-31T08:32:35.328Z,10.17
2019-03-31T08:33:45.023Z,10.07
2019-03-31T08:34:54.968Z,9.99
2019-03-31T08:36:04.179Z,9.92
2019-03-31T08:37:14.187Z,9.91
2019-03-31T08:38:26.909Z,9.82
2019-03-31T08:39:36.622Z,9.92
2019-03-31T08:40:46.569Z,9.99
2019-03-31T08:41:56.540Z,9.97
2019-03-31T08:43:06.494Z,9.92
2019-03-31T08:44:16.204Z,9.82
2019-03-31T08:45:26.152Z,9.73
2019-03-31T08:46:38.119Z,9.82
2019-03-31T08:47:47.827Z,9.67
2019-03-31T08:48:57.794Z,9.84
2019-03-31T08:50:07.421Z,9.84
2019-03-31T08:51:16.614Z,9.97
2019-03-31T08:52:25.821Z,10.05
2019-03-31T08:53:35.537Z,10.1
2019-03-31T08:54:45.487Z,10.2
2019-03-31T08:55:55.503Z,10.23
2019-03-31T08:57:05.196Z,10.49
2019-03-31T08:58:15.178Z,10.92
2019-03-31T08:59:25.140Z,11.05
2019-03-31T09:00:34.836Z,11.37
2019-03-31T09:01:44.521Z,11.45
2019-03-31T09:02:54.497Z,11.4
2019-03-31T09:04:04.441Z,11.4
2019-03-31T09:05:14.405Z,11.41
2019-03-31T09:06:23.855Z,11.43
2019-03-31T09:07:33.791Z,11.34
2019-03-31T09:08:47.143Z,11.3
2019-03-31T09:09:57.095Z,11.26
2019-03-31T09:11:06.842Z,11.34
2019-03-31T09:12:16.807Z,11.41
2019-03-31T09:13:26.752Z,11.38
2019-03-31T09:14:36.719Z,11.38
2019-03-31T09:15:46.405Z,11.19
2019-03-31T09:16:56.400Z,11.15
2019-03-31T09:18:06.105Z,11.2
2019-03-31T09:19:16.154Z,11.16
2019-03-31T09:20:26.125Z,11.12
2019-03-31T09:21:35.943Z,11.23
2019-03-31T09:22:45.896Z,11.27
2019-03-31T09:23:55.604Z,11.4
2019-03-31T09:25:05.610Z,11.41
2019-03-31T09:26:15.327Z,11.44
2019-03-31T09:27:25.455Z,11.41
2019-03-31T09:28:34.902Z,11.27
2019-03-31T09:29:44.839Z,11.23
2019-03-31T09:30:54.811Z,11.27
2019-03-31T09:32:04.767Z,11.23
2019-03-31T09:33:14.475Z,11.04
2019-03-31T09:34:24.445Z,10.9
2019-03-31T09:35:34.458Z,10.86
2019-03-31T09:36:43.927Z,10.84
2019-03-31T09:37:53.636Z,10.86
2019-03-31T09:39:03.583Z,10.84
2019-03-31T09:40:13.534Z,10.79
2019-03-31T09:41:23.219Z,10.65
2019-03-31T09:42:32.933Z,10.64
2019-03-31T09:43:42.373Z,10.58
2019-03-31T09:44:52.335Z,10.41
2019-03-31T09:46:02.286Z,10.36
2019-03-31T09:47:11.992Z,10.33
2019-03-31T09:48:20.946Z,10.34
2019-03-31T09:49:30.634Z,10.28
2019-03-31T09:50:40.424Z,10.2
2019-03-31T09:51:50.366Z,10.07
2019-03-31T09:53:00.319Z,10.09
2019-03-31T09:54:10.297Z,10
2019-03-31T09:55:22.895Z,10.02
2019-03-31T09:56:32.853Z,10.05
2019-03-31T09:57:42.545Z,9.99
2019-03-31T09:58:52.479Z,9.97
2019-03-31T10:00:02.478Z,10
2019-03-31T10:01:13.022Z,9.97
2019-03-31T10:02:22.975Z,9.95
2019-03-31T10:03:32.945Z,10.05
2019-03-31T10:04:42.892Z,10
2019-03-31T10:05:53.051Z,10
2019-03-31T10:07:17.223Z,9.9
2019-03-31T10:08:29.002Z,9.87
2019-03-31T10:09:38.730Z,9.9
2019-03-31T10:10:48.672Z,9.85
2019-03-31T10:11:58.687Z,9.76
2019-03-31T10:13:08.642Z,9.82
2019-03-31T10:14:18.606Z,9.91
2019-03-31T10:15:28.550Z,9.88
2019-03-31T10:16:38.511Z,9.88
2019-03-31T10:17:48.471Z,9.97
2019-03-31T10:18:58.174Z,9.95
2019-03-31T10:20:07.621Z,10.05
2019-03-31T10:21:17.611Z,10.05
2019-03-31T10:22:27.556Z,10.05
2019-03-31T10:23:37.521Z,10.09
2019-03-31T10:24:47.711Z,10.2
2019-03-31T10:25:57.677Z,10.09
2019-03-31T10:27:07.376Z,10.1
2019-03-31T10:28:17.059Z,10.21
2019-03-31T10:29:26.502Z,10.31
2019-03-31T10:30:35.961Z,10.28
2019-03-31T10:31:45.920Z,10.42
2019-03-31T10:32:55.643Z,10.46
2019-03-31T10:34:05.588Z,10.58
2019-03-31T10:35:15.544Z,10.62
2019-03-31T10:36:24.993Z,10.65
2019-03-31T10:37:49.062Z,10.55
2019-03-31T10:38:59.017Z,10.61
2019-03-31T10:40:08.703Z,10.76
2019-03-31T10:41:18.649Z,10.92
2019-03-31T10:42:28.594Z,10.95
2019-03-31T10:43:38.529Z,11.01
2019-03-31T10:44:48.233Z,11.02
2019-03-31T10:45:57.951Z,10.84
2019-03-31T10:47:07.899Z,10.75
2019-03-31T10:48:25.758Z,10.79
2019-03-31T10:49:35.728Z,11.08
2019-03-31T10:50:45.457Z,11.51
2019-03-31T10:51:55.416Z,11.89
2019-03-31T10:53:05.400Z,12.07
2019-03-31T10:54:15.357Z,12.3
2019-03-31T10:55:25.149Z,12.26
2019-03-31T10:56:35.100Z,12.1
2019-03-31T10:57:44.813Z,11.99
2019-03-31T10:58:54.529Z,12.17
2019-03-31T11:00:04.488Z,12.37
2019-03-31T11:01:14.459Z,12.39
2019-03-31T11:02:24.390Z,11.99
2019-03-31T11:03:37.941Z,12.02
2019-03-31T11:04:47.912Z,11.93
2019-03-31T11:05:57.629Z,11.89
2019-03-31T11:07:08.204Z,11.93
2019-03-31T11:08:17.665Z,11.86
2019-03-31T11:09:27.357Z,11.91
2019-03-31T11:10:39.654Z,12.03
2019-03-31T11:11:49.355Z,12
2019-03-31T11:12:58.808Z,11.71
2019-03-31T11:14:08.756Z,11.58
2019-03-31T11:15:18.720Z,11.4
2019-03-31T11:16:28.691Z,11.51
2019-03-31T11:17:38.630Z,11.7
2019-03-31T11:18:48.342Z,11.99
2019-03-31T11:20:00.677Z,12.39
2019-03-31T11:21:10.572Z,12.68
2019-03-31T11:22:20.529Z,12.76
2019-03-31T11:23:30.253Z,13.08
2019-03-31T11:24:39.937Z,13.5
2019-03-31T11:25:49.416Z,13.89
2019-03-31T11:26:59.586Z,14.19
2019-03-31T11:28:09.526Z,14.71
2019-03-31T11:29:19.492Z,14.81
2019-03-31T11:30:29.183Z,14.97
2019-03-31T11:31:39.137Z,14.9
2019-03-31T11:32:49.130Z,14.34
2019-03-31T11:33:59.099Z,13.71
2019-03-31T11:35:09.049Z,13.7
2019-03-31T11:36:19.092Z,13.76
2019-03-31T11:37:29.050Z,13.6
2019-03-31T11:38:38.483Z,13.2
2019-03-31T11:39:48.457Z,13.36
2019-03-31T11:40:58.152Z,13.42
2019-03-31T11:42:07.857Z,13.33
2019-03-31T11:43:17.626Z,13.33
2019-03-31T11:44:30.208Z,13.27
2019-03-31T11:45:40.173Z,13.2
2019-03-31T11:46:49.883Z,13.17
2019-03-31T11:47:59.857Z,13.54
2019-03-31T11:49:09.812Z,14
2019-03-31T11:50:19.806Z,14.43
2019-03-31T11:51:29.787Z,14.62
2019-03-31T11:52:39.510Z,14.82
2019-03-31T11:53:49.259Z,15.1
2019-03-31T11:54:58.969Z,15.57
2019-03-31T11:56:08.937Z,15.85
2019-03-31T11:57:22.222Z,15.78
2019-03-31T11:58:34.746Z,15.55
2019-03-31T11:59:44.740Z,15.87
2019-03-31T12:00:57.143Z,16.09
2019-03-31T12:02:07.095Z,16.41
2019-03-31T12:03:33.466Z,16.49
2019-03-31T12:04:43.426Z,15.25
2019-03-31T12:05:53.166Z,14.77
2019-03-31T12:07:02.610Z,15.11
2019-03-31T12:08:12.577Z,15.47
2019-03-31T12:09:22.282Z,15.65
2019-03-31T12:10:32.250Z,15.81
2019-03-31T12:11:45.462Z,15.73
2019-03-31T12:12:55.401Z,16.03
2019-03-31T12:14:05.464Z,16.36
2019-03-31T12:15:15.447Z,16.64
2019-03-31T12:16:25.137Z,16.84
2019-03-31T12:17:34.837Z,16.97
2019-03-31T12:18:44.284Z,16.58
2019-03-31T12:19:54.347Z,16.28
2019-03-31T12:21:03.804Z,16.02
2019-03-31T12:22:13.513Z,16.09
2019-03-31T12:23:22.949Z,16.25
2019-03-31T12:24:32.660Z,16.25
2019-03-31T12:25:42.632Z,16.37
2019-03-31T12:26:52.615Z,16.57
2019-03-31T12:28:02.572Z,16.94
2019-03-31T12:29:12.315Z,17.17
2019-03-31T12:30:22.031Z,17.46
2019-03-31T12:31:31.982Z,17.57
2019-03-31T12:32:43.603Z,17.78
2019-03-31T12:33:53.380Z,17.84
2019-03-31T12:35:03.086Z,18.08
2019-03-31T12:36:13.052Z,18.11
2019-03-31T12:37:23.012Z,18.11
2019-03-31T12:38:46.867Z,18.24
2019-03-31T12:39:59.203Z,18.55
2019-03-31T12:41:09.186Z,18.71
2019-03-31T12:42:18.919Z,18.76
2019-03-31T12:43:28.887Z,18.73
2019-03-31T12:44:38.591Z,18.63
2019-03-31T12:45:48.537Z,18.71
2019-03-31T12:47:01.122Z,18.76
2019-03-31T12:48:11.083Z,18.78
2019-03-31T12:49:21.067Z,18.85
2019-03-31T12:50:31.037Z,18.37
2019-03-31T12:51:41.009Z,18.26
2019-03-31T12:52:54.098Z,18.06
2019-03-31T12:54:04.078Z,17.76
2019-03-31T12:55:14.032Z,17.37
2019-03-31T12:56:23.978Z,16.03
2019-03-31T12:57:33.944Z,15.65
2019-03-31T12:58:43.688Z,15.75
2019-03-31T12:59:53.418Z,15.84
2019-03-31T13:01:03.393Z,16.08
2019-03-31T13:02:12.860Z,16.37
2019-03-31T13:03:22.330Z,16.41
2019-03-31T13:04:32.297Z,16.66
2019-03-31T13:05:42.269Z,16.95
2019-03-31T13:06:52.238Z,17.2
2019-03-31T13:08:01.978Z,17.66
2019-03-31T13:09:11.687Z,17.91
2019-03-31T13:10:21.394Z,18.27
2019-03-31T13:11:31.372Z,18.52
2019-03-31T13:12:41.343Z,18.89
2019-03-31T13:13:51.147Z,19.26
2019-03-31T13:15:01.122Z,19.2
2019-03-31T13:16:11.087Z,19.35
2019-03-31T13:17:20.797Z,19.04
2019-03-31T13:18:32.838Z,17.73
2019-03-31T13:19:42.539Z,16.64
2019-03-31T13:20:52.543Z,16.5
2019-03-31T13:22:02.508Z,16.79
2019-03-31T13:23:12.275Z,17.22
2019-03-31T13:24:22.004Z,17.35
2019-03-31T13:25:31.711Z,17.44
2019-03-31T13:26:41.510Z,17.71
2019-03-31T13:27:51.462Z,17.38
2019-03-31T13:29:01.159Z,16.91
2019-03-31T13:30:11.126Z,16.58
2019-03-31T13:31:20.825Z,17.1
2019-03-31T13:32:30.788Z,17.49
2019-03-31T13:33:40.749Z,17.87
2019-03-31T13:34:50.211Z,17.9
2019-03-31T13:36:00.163Z,18.09
2019-03-31T13:37:10.133Z,18.37
2019-03-31T13:38:20.210Z,18.61
2019-03-31T13:39:30.190Z,18.74
2019-03-31T13:40:39.905Z,18.88
2019-03-31T13:41:51.972Z,18.91
2019-03-31T13:43:01.941Z,19.01
2019-03-31T13:44:11.659Z,19.08
2019-03-31T13:45:21.371Z,19.12
2019-03-31T13:46:31.131Z,19.07
2019-03-31T13:47:41.185Z,18.66
2019-03-31T13:48:51.192Z,18.53
2019-03-31T13:50:01.186Z,18.7
2019-03-31T13:51:10.908Z,18.78
2019-03-31T13:52:20.880Z,18.86
2019-03-31T13:53:30.847Z,18.74
2019-03-31T13:54:40.813Z,18.83
2019-03-31T13:55:50.787Z,18.94
2019-03-31T13:57:02.734Z,18.61
2019-03-31T13:58:23.250Z,18.49
2019-03-31T13:59:38.524Z,18.41
2019-03-31T14:00:48.534Z,18.13
2019-03-31T14:02:05.086Z,18.08
2019-03-31T14:03:15.074Z,18.11
2019-03-31T14:04:24.797Z,18.12
2019-03-31T14:05:34.760Z,17.97
2019-03-31T14:06:44.723Z,18.02
2019-03-31T14:07:54.432Z,18.06
2019-03-31T14:09:04.398Z,17.93
2019-03-31T14:10:14.105Z,17.9
2019-03-31T14:11:26.504Z,17.95
2019-03-31T14:12:36.533Z,17.9
2019-03-31T14:13:46.511Z,17.72
2019-03-31T14:14:56.483Z,17.66
2019-03-31T14:16:06.447Z,17.53
2019-03-31T14:17:15.900Z,17.23
2019-03-31T14:18:29.388Z,17.14
2019-03-31T14:19:39.099Z,17.17
2019-03-31T14:20:48.565Z,17.34
2019-03-31T14:21:58.024Z,17.39
2019-03-31T14:23:07.732Z,17.53
2019-03-31T14:24:17.708Z,17.42
2019-03-31T14:25:27.492Z,17.41
2019-03-31T14:26:37.461Z,17.5
2019-03-31T14:27:47.171Z,17.53
2019-03-31T14:28:56.886Z,17.6
2019-03-31T14:30:06.866Z,17.72
2019-03-31T14:31:16.865Z,17.71
2019-03-31T14:32:26.855Z,17.65
2019-03-31T14:33:36.813Z,17.72
2019-03-31T14:34:46.818Z,17.8
2019-03-31T14:35:56.778Z,17.84
2019-03-31T14:37:06.830Z,17.9
2019-03-31T14:38:16.282Z,17.94
2019-03-31T14:39:26.261Z,17.87
2019-03-31T14:40:36.223Z,17.88
2019-03-31T14:41:45.968Z,17.86
2019-03-31T14:42:55.186Z,17.93
2019-03-31T14:44:05.166Z,17.97
2019-03-31T14:45:14.882Z,18.15
2019-03-31T14:46:24.851Z,18.27
2019-03-31T14:47:34.845Z,18.08
2019-03-31T14:48:44.323Z,18
2019-03-31T14:49:54.298Z,18.06
2019-03-31T14:51:04.004Z,18.08
2019-03-31T14:52:29.031Z,18.37
2019-03-31T14:53:38.516Z,18.43
2019-03-31T14:54:48.229Z,18.58
2019-03-31T14:56:00.934Z,18.73
2019-03-31T14:57:10.905Z,18.78
2019-03-31T14:58:20.620Z,18.71
2019-03-31T14:59:30.591Z,18.61
2019-03-31T15:00:40.389Z,18.41
2019-03-31T15:01:50.379Z,18.39
2019-03-31T15:03:00.343Z,18.15
2019-03-31T15:04:10.337Z,18.05
2019-03-31T15:05:20.314Z,17.9
2019-03-31T15:06:30.289Z,17.76
2019-03-31T15:07:40.282Z,17.73
2019-03-31T15:08:59.115Z,17.86
2019-03-31T15:10:09.072Z,17.87
2019-03-31T15:11:21.765Z,17.84
2019-03-31T15:12:31.816Z,17.9
2019-03-31T15:13:41.784Z,17.98
2019-03-31T15:14:51.767Z,17.87
2019-03-31T15:16:01.495Z,17.68
2019-03-31T15:17:10.963Z,17.53
2019-03-31T15:18:20.932Z,17.5
2019-03-31T15:19:30.381Z,17.24
2019-03-31T15:20:40.183Z,16.95
2019-03-31T15:21:50.151Z,16.92